Time;durP1;ratioP1;P1;durP2;ratioP2;P2;SDS_P1;SDS_P2;PMS_P1;PMS_P2;Temp;Humidity;BMP_temperature;BMP_pressure;BME280_temperature;BME280_humidity;BME280_pressure;Samples;Min_cycle;Max_cycle;Signal;HPM_P1;HPM_P2
2023/01/04 00:00:34;;;;;;;12.05;6.72;;;;;;;5.09;77.54;101189.06;1088088;54;20112;-84
2023/01/04 00:01:38;;;;;;;10.23;6.75;;;;;;;5.25;77.07;101182.91;1088092;47;20026;-83
2023/01/04 00:02:43;;;;;;;10.88;6.60;;;;;;;5.25;76.86;101172.31;1088165;46;20103;-84
2023/01/04 00:03:48;;;;;;;12.88;8.13;;;;;;;5.15;77.11;101174.59;1088234;54;20034;-84
2023/01/04 00:04:50;;;;;;;12.60;7.75;;;;;;;5.13;77.26;101179.13;1088351;47;20015;-83
2023/01/04 00:05:54;;;;;;;9.70;6.93;;;;;;;5.23;76.96;101174.19;1088262;54;20043;-83
2023/01/04 00:06:56;;;;;;;12.05;7.78;;;;;;;5.19;77.14;101170.00;1088940;47;20034;-82
2023/01/04 00:08:00;;;;;;;14.80;7.15;;;;;;;5.17;77.30;101171.88;1087920;54;20058;-82
2023/01/04 00:09:02;;;;;;;10.40;6.97;;;;;;;5.16;77.53;101165.69;1087992;54;20063;-81
2023/01/04 00:10:07;;;;;;;11.95;7.15;;;;;;;5.26;77.10;101158.97;1087928;54;20030;-82
2023/01/04 00:11:12;;;;;;;10.23;7.20;;;;;;;5.27;76.84;101162.47;1088019;54;20034;-84
2023/01/04 00:12:17;;;;;;;11.57;7.68;;;;;;;5.22;77.05;101154.78;1088067;54;20090;-82
2023/01/04 00:13:19;;;;;;;10.10;7.22;;;;;;;5.27;76.81;101144.75;1088071;54;20018;-83
2023/01/04 00:14:23;;;;;;;10.48;7.60;;;;;;;5.26;77.00;101148.34;1087944;54;20746;-81
2023/01/04 00:15:24;;;;;;;10.75;7.40;;;;;;;5.34;76.86;101149.75;1087957;54;20026;-81
2023/01/04 00:16:30;;;;;;;11.65;7.47;;;;;;;5.26;77.30;101148.34;1087994;54;20041;-83
2023/01/04 00:17:32;;;;;;;11.35;7.10;;;;;;;5.26;77.31;101147.50;1087988;54;20038;-82
2023/01/04 00:18:40;;;;;;;8.80;6.18;;;;;;;5.43;76.58;101138.63;1088105;54;20026;-83
2023/01/04 00:19:41;;;;;;;10.68;6.53;;;;;;;5.43;76.66;101139.47;1088123;54;20031;-82
2023/01/04 00:20:46;;;;;;;10.85;6.10;;;;;;;5.39;76.44;101132.63;1088126;54;20021;-82
2023/01/04 00:21:50;;;;;;;9.27;6.68;;;;;;;5.57;76.28;101132.56;1088071;54;20800;-85
2023/01/04 00:22:52;;;;;;;8.57;6.03;;;;;;;5.54;76.12;101124.78;1088279;54;20030;-83
2023/01/04 00:23:58;;;;;;;8.77;5.38;;;;;;;5.67;75.72;101122.28;1088263;54;20015;-84
2023/01/04 00:25:00;;;;;;;9.73;6.00;;;;;;;5.56;76.19;101122.91;1088230;54;20059;-82
2023/01/04 00:26:04;;;;;;;9.27;6.13;;;;;;;5.45;76.63;101124.34;1088275;54;20033;-83
2023/01/04 00:27:05;;;;;;;9.85;6.32;;;;;;;5.52;76.33;101131.94;1088247;54;20025;-83
2023/01/04 00:28:10;;;;;;;10.52;6.13;;;;;;;5.50;76.39;101120.56;1088219;54;20034;-84
2023/01/04 00:29:12;;;;;;;8.90;6.20;;;;;;;5.33;76.90;101122.38;1089953;39;20696;-85
2023/01/04 00:30:17;;;;;;;9.15;6.57;;;;;;;5.34;77.03;101118.78;1088777;46;20014;-83
2023/01/04 00:31:18;;;;;;;11.18;6.68;;;;;;;5.24;77.48;101117.56;1088523;54;20038;-82
2023/01/04 00:32:23;;;;;;;11.18;7.18;;;;;;;5.24;77.46;101121.06;1088474;54;20018;-84
2023/01/04 00:33:24;;;;;;;8.75;6.57;;;;;;;5.27;77.09;101110.28;1088515;54;20038;-83
2023/01/04 00:34:31;;;;;;;9.93;6.78;;;;;;;5.17;77.67;101108.25;1088550;54;20043;-82
2023/01/04 00:35:33;;;;;;;11.02;6.47;;;;;;;5.26;77.57;101115.69;1088493;54;20026;-83
2023/01/04 00:36:37;;;;;;;8.73;6.35;;;;;;;5.20;77.72;101110.72;1088511;54;20035;-83
2023/01/04 00:37:38;;;;;;;8.57;6.28;;;;;;;5.23;77.41;101113.19;1088393;54;20752;-81
2023/01/04 00:38:44;;;;;;;11.05;6.72;;;;;;;5.19;78.01;101116.97;1088484;54;20031;-81
2023/01/04 00:39:45;;;;;;;8.55;6.05;;;;;;;5.18;77.77;101112.63;1089548;46;20030;-84
2023/01/04 00:40:49;;;;;;;7.90;5.63;;;;;;;5.20;77.67;101110.72;1088467;54;20035;-84
2023/01/04 00:42:03;;;;;;;11.23;6.68;;;;;;;5.17;77.47;101116.19;1088629;54;20038;-84
2023/01/04 00:43:21;;;;;;;10.32;6.65;;;;;;;5.11;77.97;101117.38;1088611;54;20021;-85
2023/01/04 00:44:27;;;;;;;10.15;7.03;;;;;;;5.07;78.02;101113.19;1088554;54;20018;-83
2023/01/04 00:45:37;;;;;;;11.30;7.70;;;;;;;5.00;78.17;101110.03;1088604;54;20034;-84
2023/01/04 00:47:22;;;;;;;9.07;5.85;;;;;;;4.97;77.92;101111.03;1088922;46;20036;-83
2023/01/04 01:55:52;;;;;;;8.77;5.38;;;;;;;5.52;76.14;101131.94;1089677;54;20034;-82
2023/01/04 01:57:13;;;;;;;8.38;5.10;;;;;;;5.57;75.65;101125.44;1089750;54;20036;-83
2023/01/04 01:58:19;;;;;;;;;;;;;;;5.54;75.81;101124.78;1089922;54;20014;-83
2023/01/04 01:59:28;;;;;;;9.38;5.63;;;;;;;5.52;75.85;101124.88;1089696;54;19949;-83
2023/01/04 02:00:33;;;;;;;8.32;5.47;;;;;;;5.58;75.66;101134.25;1089653;54;20019;-84
2023/01/04 02:01:35;;;;;;;8.18;5.20;;;;;;;5.56;75.76;101120.25;1105526;31;20884;-84
2023/01/04 02:02:40;;;;;;;8.55;5.40;;;;;;;5.55;75.95;101126.50;1089631;54;20037;-84
2023/01/04 02:03:45;;;;;;;9.88;5.85;;;;;;;5.59;75.90;101128.00;1089640;54;20034;-82
2023/01/04 02:04:54;;;;;;;7.68;5.40;;;;;;;5.55;75.79;101137.09;1089761;54;20061;-83
2023/01/04 02:06:08;;;;;;;7.88;5.68;;;;;;;5.49;75.78;101132.97;1089583;54;20019;-83
2023/01/04 02:07:23;;;;;;;7.75;5.25;;;;;;;5.59;75.36;101128.88;1089722;54;20864;-84
2023/01/04 02:08:28;;;;;;;7.78;5.25;;;;;;;5.65;75.42;101127.69;1089821;54;20019;-84
2023/01/04 02:09:31;;;;;;;8.88;5.45;;;;;;;5.61;75.63;101128.78;1089706;54;20038;-82
2023/01/04 02:10:35;;;;;;;7.78;5.22;;;;;;;5.68;75.17;101118.69;1089614;54;20037;-84
2023/01/04 02:11:42;;;;;;;8.05;5.78;;;;;;;5.64;75.29;101115.34;1089818;54;20026;-85
2023/01/04 02:13:00;;;;;;;6.90;4.93;;;;;;;5.65;75.12;101117.06;1089584;54;20019;-85
2023/01/04 02:16:16;;;;;;;8.77;4.83;;;;;;;5.73;74.84;101104.22;1098948;38;20329;-84
2023/01/04 02:21:18;;;;;;;7.15;4.40;;;;;;;5.67;74.91;101109.00;1089765;54;20047;-85
2023/01/04 02:31:47;;;;;;;7.45;4.13;;;;;;;5.67;74.61;101093.09;1089923;54;20018;-84
2023/01/04 02:35:32;;;;;;;7.15;4.22;;;;;;;5.53;75.40;101089.41;1089731;54;20043;-84
2023/01/04 02:36:42;;;;;;;7.22;5.22;;;;;;;5.52;75.36;101094.81;1089633;54;20051;-85
2023/01/04 02:40:06;;;;;;;8.05;4.75;;;;;;;5.55;75.25;101079.59;1089740;54;20067;-84
2023/01/04 02:41:27;;;;;;;7.20;4.75;;;;;;;5.58;75.26;101084.72;1089655;54;20026;-84
2023/01/04 02:45:44;;;;;;;6.65;4.55;;;;;;;5.71;74.72;101079.56;1089545;54;21690;-84
2023/01/04 02:47:10;;;;;;;6.97;4.55;;;;;;;5.73;74.68;101077.69;1089560;54;20059;-84
2023/01/04 02:50:57;;;;;;;6.50;4.55;;;;;;;5.65;74.85;101063.13;1089872;54;20034;-84
2023/01/04 02:51:59;;;;;;;6.88;4.88;;;;;;;5.69;74.72;101062.03;1089711;54;20018;-83
2023/01/04 02:53:07;;;;;;;8.70;5.60;;;;;;;5.58;74.72;101062.63;1089521;54;20782;-84
2023/01/04 02:54:16;;;;;;;9.00;5.20;;;;;;;5.46;75.23;101062.41;1090409;46;20046;-82
2023/01/04 02:55:21;;;;;;;6.45;4.28;;;;;;;5.52;74.92;101047.94;1088965;54;20034;-82
2023/01/04 02:56:46;;;;;;;6.63;4.50;;;;;;;5.60;74.87;101051.00;1088205;54;20038;-83
2023/01/04 02:57:57;;;;;;;7.28;4.60;;;;;;;5.69;74.32;101049.59;1088237;54;20026;-83
2023/01/04 02:59:36;;;;;;;6.90;4.40;;;;;;;5.68;74.32;101047.91;1088334;54;20805;-85
2023/01/04 03:06:43;;;;;;;6.85;4.43;;;;;;;5.60;73.59;101036.88;1088331;54;20034;-83
2023/01/04 03:07:54;;;;;;;6.03;4.45;;;;;;;5.70;73.72;101034.56;1088366;54;20063;-84
2023/01/04 03:09:04;;;;;;;6.15;4.35;;;;;;;5.67;73.51;101029.41;1088437;46;20042;-87
2023/01/04 03:10:13;;;;;;;6.90;4.60;;;;;;;5.52;73.84;101039.13;1090812;46;20034;-84
2023/01/04 03:12:43;;;;;;;8.75;4.78;;;;;;;5.53;73.77;101038.19;1088372;54;20026;-84
2023/01/04 03:13:47;;;;;;;6.53;4.47;;;;;;;5.65;73.61;101029.53;1088265;54;20041;-87
2023/01/04 03:14:52;;;;;;;7.72;4.72;;;;;;;5.65;73.22;101026.88;1088169;54;20037;-83
2023/01/04 03:16:03;;;;;;;7.72;4.55;;;;;;;5.63;73.26;101037.53;1088240;54;20030;-84
2023/01/04 03:17:12;;;;;;;6.60;4.30;;;;;;;5.61;73.26;101035.94;1088224;54;20034;-84
2023/01/04 03:18:25;;;;;;;7.70;4.25;;;;;;;5.52;73.55;101026.72;1088173;54;20030;-82
2023/01/04 03:20:49;;;;;;;6.85;4.43;;;;;;;5.62;73.19;101032.34;1088139;54;20030;-83
2023/01/04 03:21:52;;;;;;;6.38;3.83;;;;;;;5.65;73.35;101028.66;1088143;54;20022;-83
2023/01/04 03:48:30;;;;;;;7.47;4.38;;;;;;;5.23;74.13;101031.88;1088314;54;20018;-83
2023/01/04 03:49:39;;;;;;;7.93;4.63;;;;;;;5.26;73.70;101030.84;1088434;54;20034;-84
2023/01/04 03:56:42;;;;;;;6.53;4.32;;;;;;;5.27;73.75;101016.66;1087715;54;20365;-81
2023/01/04 03:58:23;;;;;;;6.80;4.55;;;;;;;5.19;74.08;101018.88;1087585;54;20035;-82
2023/01/04 03:59:46;;;;;;;6.45;4.50;;;;;;;5.25;73.97;101010.56;1087419;54;20035;-82
2023/01/04 04:15:23;;;;;;;8.82;4.70;;;;;;;5.39;73.97;100992.06;1087296;54;20121;-84
2023/01/04 04:16:59;;;;;;;6.72;3.88;;;;;;;5.53;73.36;100987.78;1088157;54;20018;-82
2023/01/04 04:20:05;;;;;;;6.28;3.60;;;;;;;5.50;73.38;100980.00;1087704;54;20034;-82
2023/01/04 04:21:09;;;;;;;7.60;3.80;;;;;;;5.41;73.83;100979.59;1088130;54;20021;-84
2023/01/04 04:24:51;;;;;;;6.72;3.88;;;;;;;5.62;73.19;100981.94;1088051;54;20026;-83
2023/01/04 04:25:59;;;;;;;5.68;3.58;;;;;;;5.66;73.06;100970.22;1087852;47;20037;-83
2023/01/04 04:27:16;;;;;;;6.15;3.45;;;;;;;5.45;73.68;100972.31;1087845;54;20023;-84
2023/01/04 04:28:20;;;;;;;5.65;3.65;;;;;;;5.54;73.43;100971.75;1087880;54;20035;-83
2023/01/04 04:29:26;;;;;;;5.80;3.47;;;;;;;5.67;73.30;100974.53;1088020;54;20041;-85
2023/01/04 04:30:35;;;;;;;5.80;3.72;;;;;;;5.71;73.17;100970.78;1088034;54;20034;-82
2023/01/04 04:33:07;;;;;;;5.18;3.22;;;;;;;5.69;72.79;100963.88;1087937;54;20027;-82
2023/01/04 04:34:09;;;;;;;5.88;3.45;;;;;;;5.67;72.69;100966.59;1087986;54;20037;-83
2023/01/04 04:35:14;;;;;;;5.25;3.38;;;;;;;5.78;72.90;100963.31;1089844;39;20358;-83
2023/01/04 04:36:21;;;;;;;5.00;3.17;;;;;;;5.86;72.26;100966.38;1088036;54;20019;-84
2023/01/04 04:37:27;;;;;;;5.95;3.20;;;;;;;5.92;72.24;100975.75;1087915;54;20035;-84
2023/01/04 04:38:31;;;;;;;5.50;3.00;;;;;;;5.96;72.26;100969.31;1087956;54;20142;-83
2023/01/04 04:39:56;;;;;;;5.00;2.80;;;;;;;5.96;72.16;100958.69;1087781;54;20035;-84
2023/01/04 04:42:15;;;;;;;4.75;3.33;;;;;;;5.92;72.13;100958.03;1087970;54;20042;-83
2023/01/04 04:43:19;;;;;;;5.00;3.13;;;;;;;5.98;72.08;100955.97;1087901;54;20022;-83
2023/01/04 04:44:54;;;;;;;5.22;3.55;;;;;;;5.89;71.90;100962.66;1087824;54;20044;-83
2023/01/04 04:46:04;;;;;;;5.75;3.08;;;;;;;6.00;71.99;100960.25;1087969;54;20085;-84
2023/01/04 04:47:42;;;;;;;5.75;3.25;;;;;;;5.95;71.90;100959.66;1087945;54;20026;-83
2023/01/04 04:49:27;;;;;;;5.65;3.22;;;;;;;5.83;71.77;100960.38;1087837;54;20078;-83
2023/01/04 04:50:31;;;;;;;5.35;3.17;;;;;;;5.96;72.06;100953.38;1088730;46;20059;-81
2023/01/04 04:53:02;;;;;;;5.28;3.17;;;;;;;5.88;72.28;100958.31;1087538;39;20695;-83
2023/01/04 04:54:16;;;;;;;5.45;3.17;;;;;;;5.99;71.69;100960.31;1087568;54;20038;-82
2023/01/04 04:55:17;;;;;;;5.50;3.40;;;;;;;5.95;72.14;100967.63;1089166;46;20045;-83
2023/01/04 04:56:22;;;;;;;4.30;2.70;;;;;;;6.07;71.48;100958.94;1087653;54;20038;-83
2023/01/04 04:57:26;;;;;;;5.05;3.03;;;;;;;6.13;71.32;100957.72;1087955;54;20106;-83
2023/01/04 05:26:21;;;;;;;5.38;3.10;;;;;;;6.22;70.56;100940.38;1087775;54;20365;-82
2023/01/04 05:27:26;;;;;;;5.35;3.00;;;;;;;6.28;70.62;100947.09;1087907;54;20065;-83
2023/01/04 05:28:30;;;;;;;5.45;3.20;;;;;;;6.26;70.38;100947.19;1089456;39;20705;-84
2023/01/04 05:30:49;;;;;;;4.78;2.90;;;;;;;6.07;70.92;100945.66;1087797;54;20018;-83
2023/01/04 05:31:51;;;;;;;6.35;3.00;;;;;;;6.13;70.98;100951.56;1087740;54;20030;-83
2023/01/04 05:32:57;;;;;;;4.53;2.70;;;;;;;6.13;70.74;100941.78;1087802;54;20042;-83
2023/01/04 05:34:04;;;;;;;5.05;3.00;;;;;;;6.24;70.51;100943.75;1087817;54;20038;-85
2023/01/04 05:35:10;;;;;;;4.72;2.72;;;;;;;6.34;70.13;100938.75;1087802;54;20047;-82
2023/01/04 05:36:19;;;;;;;5.35;2.78;;;;;;;6.37;70.11;100939.41;1087838;54;20068;-86
2023/01/04 05:37:24;;;;;;;5.13;3.05;;;;;;;6.33;70.18;100929.06;1088995;46;20034;-85
2023/01/04 05:38:34;;;;;;;4.72;2.70;;;;;;;6.47;70.00;100936.19;1087649;54;20018;-84
2023/01/04 05:39:39;;;;;;;4.82;2.50;;;;;;;6.46;69.78;100929.16;1087734;54;20014;-83
2023/01/04 05:40:54;;;;;;;5.07;3.05;;;;;;;6.54;69.90;100932.16;1087785;54;20094;-85
2023/01/04 05:44:15;;;;;;;4.40;2.70;;;;;;;6.38;70.00;100924.31;1087828;54;20053;-83
2023/01/04 05:47:13;;;;;;;5.03;2.40;;;;;;;6.49;69.83;100923.66;1087612;54;20026;-84
2023/01/04 05:48:39;;;;;;;5.03;2.65;;;;;;;6.40;70.06;100931.25;1087644;54;20041;-85
2023/01/04 05:49:49;;;;;;;7.35;2.42;;;;;;;6.44;69.98;100929.25;1087748;54;20031;-84
2023/01/04 05:52:58;;;;;;;4.60;2.55;;;;;;;6.43;69.70;100916.06;1087605;54;20035;-85
2023/01/04 05:54:11;;;;;;;5.30;2.67;;;;;;;6.43;69.76;100916.94;1087922;54;20047;-84
2023/01/04 05:55:17;;;;;;;5.40;2.72;;;;;;;6.45;69.97;100914.16;1088048;54;20034;-83
2023/01/04 05:56:18;;;;;;;4.25;2.22;;;;;;;6.54;69.64;100910.91;1087975;54;20041;-84
2023/01/04 05:57:32;;;;;;;5.20;2.80;;;;;;;6.43;69.81;100914.28;1088085;54;20038;-84
2023/01/04 05:58:37;;;;;;;4.75;2.45;;;;;;;6.31;70.23;100902.63;1087965;54;20070;-83
2023/01/04 05:59:43;;;;;;;4.93;2.35;;;;;;;6.42;70.16;100915.22;1087999;54;20074;-83
2023/01/04 06:00:48;;;;;;;5.00;2.60;;;;;;;6.49;69.95;100915.69;1087528;54;20401;-83
2023/01/04 06:01:49;;;;;;;4.28;2.40;;;;;;;6.48;69.79;100916.63;1087360;54;20038;-81
2023/01/04 06:02:55;;;;;;;5.18;2.80;;;;;;;6.53;69.60;100918.06;1087294;54;20034;-82
2023/01/04 06:04:07;;;;;;;5.18;2.60;;;;;;;6.55;69.84;100920.59;1087345;54;20035;-84
2023/01/04 06:05:12;;;;;;;5.20;2.75;;;;;;;6.59;69.48;100918.59;1087264;54;20058;-81
2023/01/04 06:06:13;;;;;;;3.85;2.20;;;;;;;6.56;69.58;100917.00;1087309;54;20094;-81
2023/01/04 06:07:18;;;;;;;4.43;2.75;;;;;;;6.53;69.70;100911.88;1087285;54;20088;-82
2023/01/04 06:08:19;;;;;;;4.68;2.50;;;;;;;6.64;69.27;100914.69;1087355;54;20069;-81
2023/01/04 06:09:23;;;;;;;4.57;2.58;;;;;;;6.59;69.54;100922.13;1087251;54;20019;-82
2023/01/04 06:10:28;;;;;;;4.63;2.33;;;;;;;6.56;69.23;100917.00;1087331;54;20030;-82
2023/01/04 06:11:29;;;;;;;4.32;2.15;;;;;;;6.57;69.55;100929.34;1087278;54;20035;-82
2023/01/04 06:12:33;;;;;;;4.75;2.60;;;;;;;6.53;69.49;100925.16;1087243;54;20014;-80
2023/01/04 06:13:38;;;;;;;4.32;2.30;;;;;;;6.55;69.62;100920.59;1087345;54;20038;-81
2023/01/04 06:14:42;;;;;;;4.47;2.20;;;;;;;6.65;69.43;100924.38;1087260;54;20030;-81
2023/01/04 06:15:44;;;;;;;3.97;2.30;;;;;;;6.65;69.29;100927.03;1087264;54;20045;-82
2023/01/04 06:16:48;;;;;;;4.75;2.55;;;;;;;6.67;69.29;100922.47;1087270;54;20041;-81
2023/01/04 06:17:50;;;;;;;4.78;2.42;;;;;;;6.70;69.27;100916.13;1087265;54;20030;-82
2023/01/04 06:18:54;;;;;;;4.28;2.10;;;;;;;6.70;68.94;100913.47;1087327;54;20039;-81
2023/01/04 06:19:59;;;;;;;3.85;2.00;;;;;;;6.77;69.25;100919.25;1087312;54;20038;-82
2023/01/04 06:21:01;;;;;;;4.25;2.00;;;;;;;6.76;68.76;100909.56;1088780;47;20053;-80
2023/01/04 06:22:16;;;;;;;4.75;2.60;;;;;;;6.62;69.15;100921.91;1087365;54;20035;-83
2023/01/04 06:23:18;;;;;;;4.55;2.50;;;;;;;6.62;69.32;100913.94;1087293;54;20046;-82
2023/01/04 06:24:22;;;;;;;6.38;2.60;;;;;;;6.74;69.20;100908.78;1087426;54;20031;-85
2023/01/04 06:25:24;;;;;;;4.05;2.20;;;;;;;6.84;68.67;100904.59;1087877;54;20030;-84
2023/01/04 06:26:28;;;;;;;4.00;2.08;;;;;;;6.81;68.82;100910.09;1087858;54;20038;-85
2023/01/04 06:27:30;;;;;;;4.85;2.30;;;;;;;6.76;69.10;100901.59;1087791;54;20052;-84
2023/01/04 06:30:07;;;;;;;5.05;2.25;;;;;;;6.78;68.73;100900.53;1087841;54;20022;-85
2023/01/04 06:31:10;;;;;;;3.65;1.95;;;;;;;6.80;68.80;100898.63;1088274;54;20050;-84
2023/01/04 06:32:15;;;;;;;4.82;2.95;;;;;;;6.87;68.49;100901.75;1088328;54;20026;-85
2023/01/04 06:33:16;;;;;;;5.75;2.38;;;;;;;6.74;69.14;100893.72;1088209;54;20035;-85
2023/01/04 06:34:21;;;;;;;5.00;2.67;;;;;;;6.81;69.09;100891.50;1088392;54;20025;-84
2023/01/04 06:35:22;;;;;;;4.57;2.30;;;;;;;6.80;69.01;100895.13;1088358;54;20065;-85
2023/01/04 06:36:27;;;;;;;4.32;2.42;;;;;;;6.86;68.82;100895.56;1088282;54;20023;-83
2023/01/04 06:37:30;;;;;;;5.50;2.38;;;;;;;6.87;69.12;100899.09;1088240;54;20038;-87
2023/01/04 06:38:34;;;;;;;4.93;2.90;;;;;;;6.82;68.88;100895.84;1088239;54;20025;-84
2023/01/04 06:39:36;;;;;;;4.57;2.30;;;;;;;6.83;69.02;100898.44;1088440;54;20047;-84
2023/01/04 09:12:59;;;;;;;9.10;4.80;;;;;;;7.55;71.56;100809.44;1086587;54;19950;-85
2023/01/04 09:14:02;;;;;;;11.68;4.55;;;;;;;7.60;71.68;100812.63;1089368;39;20656;-84
2023/01/04 09:15:49;;;;;;;;;;;;;;;;;;;;;
2023/01/04 09:26:16;;;;;;;3.75;1.33;;;;;;;7.96;69.65;100792.34;1087883;54;20102;-82
2023/01/04 09:27:32;;;;;;;4.22;1.73;;;;;;;8.00;69.69;100784.16;1087764;54;20030;-82
2023/01/04 09:28:39;;;;;;;3.75;1.40;;;;;;;8.05;69.46;100790.00;1087982;54;20030;-83
2023/01/04 09:29:52;;;;;;;5.53;1.50;;;;;;;7.89;69.38;100801.75;1087859;46;20113;-83
2023/01/04 09:31:15;;;;;;;3.97;1.63;;;;;;;7.87;69.52;100803.66;1091815;39;20661;-83
2023/01/04 09:34:33;;;;;;;4.15;1.50;;;;;;;7.91;69.30;100805.16;1087525;54;20022;-85
2023/01/04 09:35:46;;;;;;;6.65;1.98;;;;;;;7.97;69.38;100794.06;1087692;54;20037;-84
2023/01/04 09:36:50;;;;;;;4.68;1.20;;;;;;;8.09;69.04;100791.47;1087801;54;21145;-86
2023/01/04 09:38:10;;;;;;;5.22;1.70;;;;;;;7.92;69.18;100798.88;1087617;54;20030;-83
2023/01/04 09:39:15;;;;;;;5.35;1.55;;;;;;;8.13;68.89;100800.94;1087750;54;21058;-84
2023/01/04 09:40:39;;;;;;;4.03;1.85;;;;;;;8.09;68.97;100794.97;1087758;54;20042;-87
2023/01/04 09:42:20;;;;;;;4.07;2.00;;;;;;;8.14;68.80;100799.97;1087576;54;20034;-82
2023/01/04 09:43:50;;;;;;;7.07;2.40;;;;;;;8.00;69.01;100811.63;1087921;54;20034;-85
2023/01/04 09:45:25;;;;;;;5.63;2.40;;;;;;;8.00;69.44;100802.78;1087793;54;20041;-84
2023/01/04 09:46:40;;;;;;;5.78;2.20;;;;;;;8.08;69.06;100793.28;1087333;54;20052;-82
2023/01/04 09:48:00;;;;;;;5.80;1.90;;;;;;;8.07;68.96;100790.72;1087601;54;20064;-82
2023/01/04 09:49:25;;;;;;;6.20;2.05;;;;;;;8.08;69.36;100779.13;1087669;54;20065;-81
2023/01/04 09:50:36;;;;;;;5.20;1.80;;;;;;;8.22;69.05;100786.94;1087668;54;20087;-80
2023/01/04 09:53:38;;;;;;;4.55;1.95;;;;;;;8.19;69.05;100775.66;1087197;54;20042;-83
2023/01/04 09:56:38;;;;;;;4.43;1.75;;;;;;;8.18;69.16;100772.16;1088281;54;20022;-86
2023/01/04 10:04:30;;;;;;;4.53;1.45;;;;;;;8.36;68.62;100747.81;1087765;54;20007;-86
2023/01/04 10:06:09;;;;;;;4.20;1.67;;;;;;;8.38;68.46;100754.72;1088323;54;20026;-86
2023/01/04 10:08:00;;;;;;;;;;;;;;;;;;;;;
2023/01/04 10:11:58;;;;;;;6.07;2.10;;;;;;;8.47;68.10;100742.56;1087233;54;20030;-85
2023/01/04 10:13:13;;;;;;;4.20;1.65;;;;;;;8.45;68.07;100741.78;1087705;54;20035;-85
2023/01/04 10:14:58;;;;;;;4.38;1.50;;;;;;;8.47;67.68;100731.91;1087761;54;20039;-85
2023/01/04 10:16:22;;;;;;;3.72;1.60;;;;;;;8.61;67.86;100738.00;1087590;54;20034;-81
2023/01/04 10:18:03;;;;;;;3.85;1.30;;;;;;;8.64;67.38;100738.66;1090100;46;20101;-83
2023/01/04 10:19:44;;;;;;;4.15;1.40;;;;;;;8.71;67.53;100734.56;1087639;54;20026;-84
2023/01/04 10:21:22;;;;;;;4.60;1.58;;;;;;;8.66;67.82;100733.19;1087621;54;20034;-83
2023/01/04 10:23:03;;;;;;;5.15;1.60;;;;;;;8.59;68.04;100743.47;1087464;54;20041;-82
2023/01/04 10:26:17;;;;;;;3.47;1.30;;;;;;;8.45;68.84;100728.47;1087302;54;20034;-85
2023/01/04 10:27:33;;;;;;;3.58;1.50;;;;;;;8.43;68.85;100730.41;1087270;54;20038;-83
2023/01/04 10:28:56;;;;;;;4.50;1.50;;;;;;;8.53;68.63;100730.59;1087563;54;20042;-87
2023/01/04 10:30:33;;;;;;;5.82;1.88;;;;;;;8.70;68.26;100718.66;1087694;54;20041;-84
2023/01/04 10:31:51;;;;;;;4.22;1.80;;;;;;;8.69;68.51;100716.97;1087924;54;20034;-85
2023/01/04 10:33:03;;;;;;;4.78;1.60;;;;;;;8.87;67.58;100710.25;1087635;54;20031;-85
2023/01/04 10:34:17;;;;;;;4.03;1.58;;;;;;;8.72;68.16;100714.06;1087772;54;20057;-89
2023/01/04 10:35:21;;;;;;;4.50;2.00;;;;;;;8.61;68.26;100706.88;1087629;54;20038;-83
2023/01/04 10:36:48;;;;;;;4.93;1.67;;;;;;;8.62;68.39;100702.41;1087747;54;20030;-89
2023/01/04 10:38:03;;;;;;;4.88;1.85;;;;;;;8.66;68.00;100690.56;1089252;39;20664;-86
2023/01/04 10:39:15;;;;;;;4.45;1.95;;;;;;;8.80;67.82;100705.50;1087645;54;20026;-82
2023/01/04 10:40:44;;;;;;;;;;;;;;;;;;;;;
2023/01/04 10:42:19;;;;;;;;;;;;;;;;;;;;;
2023/01/04 10:44:26;;;;;;;5.03;1.60;;;;;;;8.87;67.52;100706.72;1087587;54;20038;-82
2023/01/04 10:47:08;;;;;;;4.07;1.20;;;;;;;8.83;67.56;100715.94;1087244;54;20037;-85
2023/01/04 10:50:27;;;;;;;5.05;1.83;;;;;;;8.82;67.49;100704.41;1087227;54;20018;-85
2023/01/04 10:51:55;;;;;;;4.10;1.40;;;;;;;8.79;67.50;100698.47;1087263;54;20040;-86
2023/01/04 10:55:21;;;;;;;4.47;1.80;;;;;;;8.92;67.61;100690.34;1087108;54;20060;-84
2023/01/04 10:56:35;;;;;;;8.82;4.50;;;;;;;8.91;67.58;100694.84;1087280;54;20065;-83
2023/01/04 10:57:45;;;;;;;8.60;5.28;;;;;;;8.92;67.76;100687.69;1087265;54;20046;-84
2023/01/04 10:58:55;;;;;;;9.15;4.70;;;;;;;9.05;67.25;100689.28;1088125;39;20700;-83
2023/01/04 11:00:14;;;;;;;7.97;4.80;;;;;;;9.01;67.44;100681.66;1087285;54;20071;-86
2023/01/04 11:01:22;;;;;;;6.88;3.80;;;;;;;9.00;67.61;100682.63;1087278;54;20035;-85
2023/01/04 11:02:47;;;;;;;5.85;3.33;;;;;;;9.00;67.63;100687.94;1087111;54;20038;-82
2023/01/04 11:03:58;;;;;;;6.25;3.00;;;;;;;9.06;67.58;100679.50;1087241;54;20041;-84
2023/01/04 11:05:05;;;;;;;;;;;;;;;9.10;67.49;100691.59;1087698;54;20056;-84
2023/01/04 11:06:17;;;;;;;5.20;2.33;;;;;;;9.12;67.17;100678.13;1087505;54;19935;-86
2023/01/04 11:07:26;;;;;;;4.30;1.95;;;;;;;9.15;67.33;100678.78;1087535;54;20430;-86
2023/01/04 11:08:37;;;;;;;4.40;1.83;;;;;;;9.19;66.98;100685.53;1087792;54;20042;-86
2023/01/04 11:09:47;;;;;;;4.85;1.80;;;;;;;9.10;67.10;100686.28;1088055;54;20018;-87
2023/01/04 11:13:41;;;;;;;4.22;1.50;;;;;;;9.21;67.04;100678.28;1087337;54;20023;-86
2023/01/04 11:14:43;;;;;;;4.50;1.42;;;;;;;9.17;67.28;100673.31;1087822;54;21208;-84
2023/01/04 11:17:07;;;;;;;5.32;1.90;;;;;;;9.25;67.50;100678.03;1087850;54;20082;-88
2023/01/04 11:19:59;;;;;;;4.23;1.40;;;;;;;9.18;67.83;100667.00;1069935;54;20859;31
2023/01/04 11:26:19;;;;;;;2.92;1.10;;;;;;;9.28;67.64;100675.13;1069153;54;21649;-85
2023/01/04 11:27:42;;;;;;;;;;;;;;;;;;;;;
2023/01/04 11:29:30;;;;;;;6.95;1.27;;;;;;;9.26;67.51;100669.06;1087895;54;20037;-85
2023/01/04 11:35:33;;;;;;;6.03;1.48;;;;;;;9.32;67.56;100644.56;1086653;54;20019;-85
2023/01/04 11:39:48;;;;;;;4.72;1.60;;;;;;;9.53;67.49;100650.00;1087909;54;20034;-85
2023/01/04 11:48:41;;;;;;;4.10;1.30;;;;;;;9.35;69.85;100657.69;1087058;54;20030;-84
2023/01/04 11:52:07;;;;;;;3.10;1.17;;;;;;;9.27;70.40;100660.06;1086975;54;20035;-82
2023/01/04 11:53:27;;;;;;;;;;;;;;;9.21;70.18;100669.41;1087033;54;21112;-83
2023/01/04 11:54:37;;;;;;;4.60;1.10;;;;;;;9.16;70.15;100658.25;1089055;47;19954;-82
2023/01/04 12:12:34;;;;;;;5.00;1.38;;;;;;;9.25;71.92;100664.72;2177089;54;20238;-86
2023/01/04 16:33:49;;;;;;;6.13;2.47;;;;;;;10.72;70.28;100396.06;1085741;47;20034;-83
2023/01/04 16:37:49;;;;;;;3.75;1.33;;;;;;;10.85;70.11;100385.94;1087028;54;20042;-83
2023/01/04 16:39:18;;;;;;;4.05;1.30;;;;;;;11.01;69.58;100389.91;1091583;39;20773;-83
2023/01/04 16:43:09;;;;;;;;;;;;;;;;;;;;;
2023/01/04 16:44:40;;;;;;;;;;;;;;;;;;;;;
2023/01/04 16:47:22;;;;;;;2.83;1.08;;;;;;;11.30;68.75;100387.25;1087822;46;20106;-82
2023/01/04 16:48:43;;;;;;;3.28;1.10;;;;;;;11.36;68.30;100389.34;1088456;39;20725;-81
2023/01/04 16:50:09;;;;;;;;;;;;;;;11.33;68.23;100395.00;1087344;54;20034;-81
2023/01/04 16:52:16;;;;;;;2.92;0.82;;;;;;;11.39;67.76;100386.41;1089309;39;20200;-83
2023/01/04 16:54:06;;;;;;;1.85;0.70;;;;;;;11.46;67.72;100391.19;1087002;54;20035;-82
2023/01/04 16:56:03;;;;;;;2.25;0.70;;;;;;;11.49;67.30;100382.88;1087406;54;20035;-81
2023/01/04 16:57:28;;;;;;;4.97;0.98;;;;;;;11.63;67.36;100392.28;1088926;39;21297;-82
2023/01/04 16:59:02;;;;;;;3.25;1.50;;;;;;;11.62;67.49;100385.25;1087386;54;20057;-83
2023/01/04 17:00:09;;;;;;;2.60;1.10;;;;;;;11.71;67.57;100390.56;1087265;54;20035;-82
2023/01/04 17:03:35;;;;;;;3.25;1.48;;;;;;;11.61;67.28;100384.41;1087283;54;21036;-83
2023/01/04 17:12:26;;;;;;;2.90;0.93;;;;;;;11.68;67.12;100372.13;1089145;54;20034;-83
2023/01/04 17:13:37;;;;;;;2.25;0.77;;;;;;;11.74;66.75;100369.84;1089058;54;20046;-82
2023/01/04 17:16:22;;;;;;;2.95;1.00;;;;;;;11.77;66.92;100369.56;1088974;54;20745;-84
2023/01/04 17:18:12;;;;;;;;;;;;;;;;;;;;;
2023/01/04 17:19:31;;;;;;;3.03;0.87;;;;;;;11.80;66.69;100362.09;1089013;54;20263;-82
2023/01/04 17:39:25;;;;;;;3.05;1.16;;;;;;;11.70;67.02;100358.59;18437;54;70630;-83
2023/01/04 17:41:43;;;;;;;3.53;1.20;;;;;;;11.56;67.66;100362.56;1088420;46;20657;-84
2023/01/04 17:43:02;;;;;;;2.83;1.02;;;;;;;11.58;67.55;100365.94;1091660;46;20030;-83
2023/01/04 17:44:24;;;;;;;2.38;0.93;;;;;;;11.71;67.26;100346.88;1089322;46;20088;-83
2023/01/04 17:45:42;;;;;;;;;;;;;;;;;;;;;
2023/01/04 17:47:10;;;;;;;2.20;0.70;;;;;;;11.75;67.01;100355.47;1089033;54;20030;-82